Huff, Kentucky
Current Conditions -  °F | °C
As of 3:53 PM on Tuesday 25 Nov 2014 (Local Time) from KBWG Reporting Station
Clear Clear  
Wind Chill:   Ceiling: Unl
Heat Index:   Visibility: 10mi
Dew Point: -4°   Wind: 3mph
Humidity: 44%   Direction: 310°NW
Pressure: 30.13"   Gusts: NA
Location:  37.2379°N, 86.3446°W
Report Text: KBWG 252153Z AUTO 31003KT 10SM CLR 08/M04 A3013 RMK AO2 SLP204 T00781039
Loading
Personal Weather Stations






























Interactive Weather Map New forecast layout! Learn more

10-Day Weather Forecast

Advertisements
Track Severe Weather on mobile